Terminal Aerodrome Forecast
Issued by NWS Cleveland, OH

Home | Current Version | Previous Version | Graphics & Text | Print | Product List | Glossary On
Versions: 1 2 3 4 5 6 7 8 9 10 11 12 13 14 15 16 17 18 19 20 21 22 23 24 25 26 27 28 29 30 31 32 33 34 35 36
000
FTUS41 KCLE 202000 AAB
TAFCLE
TAF AMD
KCLE 202053Z 2021/2124 25012KT P6SM BKN050
      TEMPO 2022/2024 4SM -SHRA
     FM210100 23005KT P6SM SCT045 BKN120
     FM210900 21003KT 6SM BR VCSH SCT025 BKN045
      TEMPO 2109/2113 4SM BR
     FM211400 24006KT P6SM VCSH BKN035
      TEMPO 2114/2118 5SM TSRA BR BKN025CB
     FM211800 25011KT P6SM VCTS BKN035CB=

USA.gov is the U.S. government's official web portal to all federal, state and local government web resources and services.